sensor_id;sensor_type;location;lat;lon;timestamp;P1;durP1;ratioP1;P2;durP2;ratioP2
81523;SDS011;70954;49.500;10.416;2024-01-11T00:00:55;12.65;;;6.07;;
81523;SDS011;70954;49.500;10.416;2024-01-11T00:03:21;15.68;;;7.40;;
81523;SDS011;70954;49.500;10.416;2024-01-11T00:05:46;14.35;;;6.72;;
81523;SDS011;70954;49.500;10.416;2024-01-11T00:08:12;14.82;;;7.45;;
81523;SDS011;70954;49.500;10.416;2024-01-11T00:10:37;12.02;;;5.85;;
81523;SDS011;70954;49.500;10.416;2024-01-11T00:13:03;9.27;;;5.35;;
81523;SDS011;70954;49.500;10.416;2024-01-11T00:15:28;11.82;;;6.22;;
81523;SDS011;70954;49.500;10.416;2024-01-11T00:17:53;12.88;;;6.50;;
81523;SDS011;70954;49.500;10.416;2024-01-11T00:20:19;11.00;;;6.20;;
81523;SDS011;70954;49.500;10.416;2024-01-11T00:22:44;11.13;;;6.18;;
81523;SDS011;70954;49.500;10.416;2024-01-11T00:25:10;10.77;;;6.50;;
81523;SDS011;70954;49.500;10.416;2024-01-11T00:27:35;11.60;;;5.97;;
81523;SDS011;70954;49.500;10.416;2024-01-11T00:30:01;13.15;;;6.38;;
81523;SDS011;70954;49.500;10.416;2024-01-11T00:32:26;10.43;;;6.13;;
81523;SDS011;70954;49.500;10.416;2024-01-11T00:34:51;12.13;;;6.57;;
81523;SDS011;70954;49.500;10.416;2024-01-11T00:37:17;12.27;;;5.80;;
81523;SDS011;70954;49.500;10.416;2024-01-11T00:39:42;12.45;;;6.10;;
81523;SDS011;70954;49.500;10.416;2024-01-11T00:42:08;12.10;;;6.00;;
81523;SDS011;70954;49.500;10.416;2024-01-11T00:44:33;11.75;;;5.70;;
81523;SDS011;70954;49.500;10.416;2024-01-11T00:46:59;12.57;;;6.10;;
81523;SDS011;70954;49.500;10.416;2024-01-11T00:49:24;13.38;;;5.82;;
81523;SDS011;70954;49.500;10.416;2024-01-11T00:51:49;9.77;;;5.38;;
81523;SDS011;70954;49.500;10.416;2024-01-11T00:54:15;9.23;;;5.15;;
81523;SDS011;70954;49.500;10.416;2024-01-11T00:56:40;9.02;;;5.10;;
81523;SDS011;70954;49.500;10.416;2024-01-11T00:59:06;11.93;;;5.57;;
81523;SDS011;70954;49.500;10.416;2024-01-11T01:01:31;10.95;;;5.85;;
81523;SDS011;70954;49.500;10.416;2024-01-11T01:03:57;11.45;;;6.28;;
81523;SDS011;70954;49.500;10.416;2024-01-11T01:06:23;13.38;;;5.78;;
81523;SDS011;70954;49.500;10.416;2024-01-11T01:08:48;13.32;;;6.43;;
81523;SDS011;70954;49.500;10.416;2024-01-11T01:11:14;11.65;;;6.13;;
81523;SDS011;70954;49.500;10.416;2024-01-11T01:13:39;12.18;;;6.07;;
81523;SDS011;70954;49.500;10.416;2024-01-11T01:16:05;12.40;;;6.50;;
81523;SDS011;70954;49.500;10.416;2024-01-11T01:18:30;14.90;;;7.25;;
81523;SDS011;70954;49.500;10.416;2024-01-11T01:20:56;16.08;;;7.10;;
81523;SDS011;70954;49.500;10.416;2024-01-11T01:23:21;14.48;;;6.65;;
81523;SDS011;70954;49.500;10.416;2024-01-11T01:25:46;14.70;;;7.45;;
81523;SDS011;70954;49.500;10.416;2024-01-11T01:28:12;17.08;;;8.02;;
81523;SDS011;70954;49.500;10.416;2024-01-11T01:30:37;16.80;;;8.05;;
81523;SDS011;70954;49.500;10.416;2024-01-11T01:33:03;14.95;;;7.35;;
81523;SDS011;70954;49.500;10.416;2024-01-11T01:35:28;14.95;;;7.10;;
81523;SDS011;70954;49.500;10.416;2024-01-11T01:37:54;10.07;;;5.25;;
81523;SDS011;70954;49.500;10.416;2024-01-11T01:40:20;13.18;;;7.00;;
81523;SDS011;70954;49.500;10.416;2024-01-11T01:42:45;12.52;;;6.03;;
81523;SDS011;70954;49.500;10.416;2024-01-11T01:45:11;13.68;;;6.57;;
81523;SDS011;70954;49.500;10.416;2024-01-11T01:47:37;12.10;;;6.30;;
81523;SDS011;70954;49.500;10.416;2024-01-11T01:50:05;14.25;;;6.93;;
81523;SDS011;70954;49.500;10.416;2024-01-11T01:52:32;11.68;;;5.53;;
81523;SDS011;70954;49.500;10.416;2024-01-11T01:54:59;14.32;;;6.28;;
81523;SDS011;70954;49.500;10.416;2024-01-11T01:57:26;13.35;;;6.45;;
81523;SDS011;70954;49.500;10.416;2024-01-11T01:59:51;15.50;;;7.03;;
81523;SDS011;70954;49.500;10.416;2024-01-11T02:02:17;12.35;;;6.53;;
81523;SDS011;70954;49.500;10.416;2024-01-11T02:04:45;11.48;;;5.85;;
81523;SDS011;70954;49.500;10.416;2024-01-11T02:07:11;12.35;;;5.90;;
81523;SDS011;70954;49.500;10.416;2024-01-11T02:09:36;12.98;;;6.35;;
81523;SDS011;70954;49.500;10.416;2024-01-11T02:12:02;11.55;;;6.30;;
81523;SDS011;70954;49.500;10.416;2024-01-11T02:14:28;10.23;;;5.68;;
81523;SDS011;70954;49.500;10.416;2024-01-11T02:16:53;11.45;;;5.40;;
81523;SDS011;70954;49.500;10.416;2024-01-11T02:19:19;12.27;;;6.45;;
81523;SDS011;70954;49.500;10.416;2024-01-11T02:21:46;12.05;;;5.80;;
81523;SDS011;70954;49.500;10.416;2024-01-11T02:24:13;10.68;;;5.90;;
81523;SDS011;70954;49.500;10.416;2024-01-11T02:26:57;11.85;;;6.18;;
81523;SDS011;70954;49.500;10.416;2024-01-11T02:29:27;9.48;;;4.90;;
81523;SDS011;70954;49.500;10.416;2024-01-11T02:31:54;11.50;;;6.15;;
81523;SDS011;70954;49.500;10.416;2024-01-11T02:34:20;14.27;;;6.60;;
81523;SDS011;70954;49.500;10.416;2024-01-11T02:36:46;11.48;;;5.78;;
81523;SDS011;70954;49.500;10.416;2024-01-11T02:39:12;12.82;;;6.43;;
81523;SDS011;70954;49.500;10.416;2024-01-11T02:41:40;11.20;;;5.88;;
81523;SDS011;70954;49.500;10.416;2024-01-11T02:44:06;11.88;;;5.82;;
81523;SDS011;70954;49.500;10.416;2024-01-11T02:46:32;10.20;;;5.80;;
81523;SDS011;70954;49.500;10.416;2024-01-11T02:48:57;10.02;;;5.35;;
81523;SDS011;70954;49.500;10.416;2024-01-11T02:51:22;13.05;;;6.53;;
81523;SDS011;70954;49.500;10.416;2024-01-11T02:53:48;11.00;;;5.60;;
81523;SDS011;70954;49.500;10.416;2024-01-11T02:56:13;10.82;;;5.13;;
81523;SDS011;70954;49.500;10.416;2024-01-11T02:58:39;10.15;;;5.20;;
81523;SDS011;70954;49.500;10.416;2024-01-11T03:01:04;10.82;;;5.55;;
81523;SDS011;70954;49.500;10.416;2024-01-11T03:03:30;10.52;;;5.35;;
81523;SDS011;70954;49.500;10.416;2024-01-11T03:05:55;14.13;;;6.50;;
81523;SDS011;70954;49.500;10.416;2024-01-11T03:08:21;9.43;;;4.85;;
81523;SDS011;70954;49.500;10.416;2024-01-11T03:10:46;11.27;;;6.43;;
81523;SDS011;70954;49.500;10.416;2024-01-11T03:13:11;10.35;;;5.53;;
81523;SDS011;70954;49.500;10.416;2024-01-11T03:15:37;11.88;;;6.38;;
81523;SDS011;70954;49.500;10.416;2024-01-11T03:18:02;11.75;;;5.43;;
81523;SDS011;70954;49.500;10.416;2024-01-11T03:20:28;12.02;;;5.57;;
81523;SDS011;70954;49.500;10.416;2024-01-11T03:22:53;11.40;;;5.63;;
81523;SDS011;70954;49.500;10.416;2024-01-11T03:25:19;10.18;;;5.72;;
81523;SDS011;70954;49.500;10.416;2024-01-11T03:27:44;9.95;;;5.07;;
81523;SDS011;70954;49.500;10.416;2024-01-11T03:30:10;9.95;;;4.80;;
81523;SDS011;70954;49.500;10.416;2024-01-11T03:32:36;9.10;;;5.07;;
81523;SDS011;70954;49.500;10.416;2024-01-11T03:35:02;11.18;;;5.38;;
81523;SDS011;70954;49.500;10.416;2024-01-11T03:37:27;11.13;;;5.20;;
81523;SDS011;70954;49.500;10.416;2024-01-11T03:39:53;9.75;;;4.78;;
81523;SDS011;70954;49.500;10.416;2024-01-11T03:42:18;12.00;;;5.35;;
81523;SDS011;70954;49.500;10.416;2024-01-11T03:44:44;9.23;;;5.53;;
81523;SDS011;70954;49.500;10.416;2024-01-11T03:47:09;9.93;;;5.30;;
81523;SDS011;70954;49.500;10.416;2024-01-11T03:49:34;10.60;;;4.60;;
81523;SDS011;70954;49.500;10.416;2024-01-11T03:52:00;10.40;;;5.60;;
81523;SDS011;70954;49.500;10.416;2024-01-11T03:54:25;12.48;;;6.25;;
81523;SDS011;70954;49.500;10.416;2024-01-11T03:56:51;12.60;;;6.68;;
81523;SDS011;70954;49.500;10.416;2024-01-11T03:59:16;12.07;;;5.75;;
81523;SDS011;70954;49.500;10.416;2024-01-11T04:01:42;11.45;;;5.60;;
81523;SDS011;70954;49.500;10.416;2024-01-11T04:04:08;11.18;;;5.18;;
81523;SDS011;70954;49.500;10.416;2024-01-11T04:06:33;10.63;;;5.15;;
81523;SDS011;70954;49.500;10.416;2024-01-11T04:08:59;10.18;;;4.50;;
81523;SDS011;70954;49.500;10.416;2024-01-11T04:11:27;9.43;;;4.90;;
81523;SDS011;70954;49.500;10.416;2024-01-11T04:13:53;10.13;;;4.85;;
81523;SDS011;70954;49.500;10.416;2024-01-11T04:16:19;10.35;;;5.43;;
81523;SDS011;70954;49.500;10.416;2024-01-11T04:18:45;10.50;;;5.20;;
81523;SDS011;70954;49.500;10.416;2024-01-11T04:21:23;11.25;;;5.97;;
81523;SDS011;70954;49.500;10.416;2024-01-11T04:23:50;12.13;;;6.07;;
81523;SDS011;70954;49.500;10.416;2024-01-11T04:26:19;9.05;;;4.85;;
81523;SDS011;70954;49.500;10.416;2024-01-11T04:28:47;9.80;;;5.38;;
81523;SDS011;70954;49.500;10.416;2024-01-11T04:31:14;11.77;;;6.43;;
81523;SDS011;70954;49.500;10.416;2024-01-11T04:33:40;11.43;;;6.20;;
81523;SDS011;70954;49.500;10.416;2024-01-11T04:36:06;15.43;;;7.30;;
81523;SDS011;70954;49.500;10.416;2024-01-11T04:38:32;12.63;;;6.45;;
81523;SDS011;70954;49.500;10.416;2024-01-11T04:40:57;14.15;;;6.40;;
81523;SDS011;70954;49.500;10.416;2024-01-11T04:43:23;13.30;;;6.40;;
81523;SDS011;70954;49.500;10.416;2024-01-11T04:45:48;11.73;;;5.72;;
81523;SDS011;70954;49.500;10.416;2024-01-11T04:48:14;12.60;;;6.00;;
81523;SDS011;70954;49.500;10.416;2024-01-11T04:50:39;12.93;;;6.95;;
81523;SDS011;70954;49.500;10.416;2024-01-11T04:53:04;12.80;;;6.45;;
81523;SDS011;70954;49.500;10.416;2024-01-11T04:55:30;10.48;;;5.82;;
81523;SDS011;70954;49.500;10.416;2024-01-11T04:57:55;13.57;;;6.53;;
81523;SDS011;70954;49.500;10.416;2024-01-11T05:00:21;13.25;;;6.40;;
81523;SDS011;70954;49.500;10.416;2024-01-11T05:02:46;10.65;;;6.07;;
81523;SDS011;70954;49.500;10.416;2024-01-11T05:05:12;12.63;;;6.53;;
81523;SDS011;70954;49.500;10.416;2024-01-11T05:07:37;10.85;;;5.93;;
81523;SDS011;70954;49.500;10.416;2024-01-11T05:10:03;10.48;;;5.72;;
81523;SDS011;70954;49.500;10.416;2024-01-11T05:12:28;9.80;;;5.05;;
81523;SDS011;70954;49.500;10.416;2024-01-11T05:14:54;11.07;;;5.97;;
81523;SDS011;70954;49.500;10.416;2024-01-11T05:17:19;9.73;;;5.28;;
81523;SDS011;70954;49.500;10.416;2024-01-11T05:19:45;10.80;;;5.05;;
81523;SDS011;70954;49.500;10.416;2024-01-11T05:22:10;11.85;;;5.80;;
81523;SDS011;70954;49.500;10.416;2024-01-11T05:24:35;13.50;;;6.22;;
81523;SDS011;70954;49.500;10.416;2024-01-11T05:27:01;10.70;;;5.65;;
81523;SDS011;70954;49.500;10.416;2024-01-11T05:29:26;9.57;;;5.20;;
81523;SDS011;70954;49.500;10.416;2024-01-11T05:31:52;8.77;;;4.68;;
81523;SDS011;70954;49.500;10.416;2024-01-11T05:34:17;10.40;;;5.53;;
81523;SDS011;70954;49.500;10.416;2024-01-11T05:36:43;14.52;;;6.72;;
81523;SDS011;70954;49.500;10.416;2024-01-11T05:39:08;14.57;;;6.00;;
81523;SDS011;70954;49.500;10.416;2024-01-11T05:41:33;14.07;;;6.28;;
81523;SDS011;70954;49.500;10.416;2024-01-11T05:43:59;14.40;;;7.03;;
81523;SDS011;70954;49.500;10.416;2024-01-11T05:46:24;9.77;;;5.25;;
81523;SDS011;70954;49.500;10.416;2024-01-11T05:48:50;9.25;;;5.05;;
81523;SDS011;70954;49.500;10.416;2024-01-11T05:51:15;11.50;;;5.93;;
81523;SDS011;70954;49.500;10.416;2024-01-11T05:53:41;9.30;;;4.72;;
81523;SDS011;70954;49.500;10.416;2024-01-11T05:56:09;10.07;;;4.93;;
81523;SDS011;70954;49.500;10.416;2024-01-11T05:58:35;10.25;;;5.70;;
81523;SDS011;70954;49.500;10.416;2024-01-11T06:01:01;9.38;;;5.30;;
81523;SDS011;70954;49.500;10.416;2024-01-11T06:03:27;8.90;;;5.03;;
81523;SDS011;70954;49.500;10.416;2024-01-11T06:05:53;10.20;;;5.28;;
81523;SDS011;70954;49.500;10.416;2024-01-11T06:08:18;8.30;;;4.35;;
81523;SDS011;70954;49.500;10.416;2024-01-11T06:10:44;11.23;;;5.53;;
81523;SDS011;70954;49.500;10.416;2024-01-11T06:13:09;7.53;;;4.75;;
81523;SDS011;70954;49.500;10.416;2024-01-11T06:15:34;8.48;;;5.22;;
81523;SDS011;70954;49.500;10.416;2024-01-11T06:18:00;10.88;;;5.28;;
81523;SDS011;70954;49.500;10.416;2024-01-11T06:20:25;10.95;;;5.55;;
81523;SDS011;70954;49.500;10.416;2024-01-11T06:22:51;14.88;;;6.70;;
81523;SDS011;70954;49.500;10.416;2024-01-11T06:25:16;15.88;;;7.43;;
81523;SDS011;70954;49.500;10.416;2024-01-11T06:27:42;12.70;;;6.88;;
81523;SDS011;70954;49.500;10.416;2024-01-11T06:30:08;11.65;;;5.63;;
81523;SDS011;70954;49.500;10.416;2024-01-11T06:32:34;10.75;;;5.53;;
81523;SDS011;70954;49.500;10.416;2024-01-11T06:34:59;10.27;;;5.53;;
81523;SDS011;70954;49.500;10.416;2024-01-11T06:37:24;8.25;;;5.28;;
81523;SDS011;70954;49.500;10.416;2024-01-11T06:39:50;8.43;;;5.00;;
81523;SDS011;70954;49.500;10.416;2024-01-11T06:42:15;11.63;;;5.57;;
81523;SDS011;70954;49.500;10.416;2024-01-11T06:44:41;9.02;;;4.95;;
81523;SDS011;70954;49.500;10.416;2024-01-11T06:47:06;10.20;;;5.00;;
81523;SDS011;70954;49.500;10.416;2024-01-11T06:49:32;10.40;;;5.65;;
81523;SDS011;70954;49.500;10.416;2024-01-11T06:51:58;11.18;;;6.30;;
81523;SDS011;70954;49.500;10.416;2024-01-11T06:54:23;10.20;;;5.43;;
81523;SDS011;70954;49.500;10.416;2024-01-11T06:56:49;10.68;;;5.57;;
81523;SDS011;70954;49.500;10.416;2024-01-11T06:59:14;9.73;;;5.65;;
81523;SDS011;70954;49.500;10.416;2024-01-11T07:01:40;12.80;;;6.70;;
81523;SDS011;70954;49.500;10.416;2024-01-11T07:04:05;12.40;;;6.53;;
81523;SDS011;70954;49.500;10.416;2024-01-11T07:06:31;15.20;;;8.35;;
81523;SDS011;70954;49.500;10.416;2024-01-11T07:08:56;14.50;;;7.30;;
81523;SDS011;70954;49.500;10.416;2024-01-11T07:11:21;13.60;;;7.07;;
81523;SDS011;70954;49.500;10.416;2024-01-11T07:13:47;14.35;;;7.80;;
81523;SDS011;70954;49.500;10.416;2024-01-11T07:16:12;15.93;;;6.88;;
81523;SDS011;70954;49.500;10.416;2024-01-11T07:18:38;12.00;;;7.38;;
81523;SDS011;70954;49.500;10.416;2024-01-11T07:21:03;14.07;;;7.07;;
81523;SDS011;70954;49.500;10.416;2024-01-11T07:23:29;12.48;;;7.13;;
81523;SDS011;70954;49.500;10.416;2024-01-11T07:25:54;12.35;;;6.65;;
81523;SDS011;70954;49.500;10.416;2024-01-11T07:28:20;15.75;;;6.90;;
81523;SDS011;70954;49.500;10.416;2024-01-11T07:30:45;11.43;;;6.20;;
81523;SDS011;70954;49.500;10.416;2024-01-11T07:33:11;13.10;;;6.07;;
81523;SDS011;70954;49.500;10.416;2024-01-11T07:35:36;10.90;;;5.43;;
81523;SDS011;70954;49.500;10.416;2024-01-11T07:38:02;13.40;;;6.35;;
81523;SDS011;70954;49.500;10.416;2024-01-11T07:40:27;13.05;;;6.95;;
81523;SDS011;70954;49.500;10.416;2024-01-11T07:42:53;13.70;;;7.70;;
81523;SDS011;70954;49.500;10.416;2024-01-11T07:45:18;17.50;;;8.85;;
81523;SDS011;70954;49.500;10.416;2024-01-11T07:47:44;12.80;;;6.28;;
81523;SDS011;70954;49.500;10.416;2024-01-11T07:50:09;14.15;;;7.15;;
81523;SDS011;70954;49.500;10.416;2024-01-11T07:52:35;14.38;;;6.32;;
81523;SDS011;70954;49.500;10.416;2024-01-11T07:55:01;12.50;;;6.75;;
81523;SDS011;70954;49.500;10.416;2024-01-11T07:57:26;10.13;;;5.25;;
81523;SDS011;70954;49.500;10.416;2024-01-11T07:59:52;12.70;;;5.45;;
81523;SDS011;70954;49.500;10.416;2024-01-11T08:02:17;10.95;;;5.57;;
81523;SDS011;70954;49.500;10.416;2024-01-11T08:04:42;11.05;;;5.32;;
81523;SDS011;70954;49.500;10.416;2024-01-11T08:07:08;11.05;;;5.10;;
81523;SDS011;70954;49.500;10.416;2024-01-11T08:09:33;8.13;;;4.43;;
81523;SDS011;70954;49.500;10.416;2024-01-11T08:11:59;11.90;;;5.40;;
81523;SDS011;70954;49.500;10.416;2024-01-11T08:14:24;10.73;;;5.22;;
81523;SDS011;70954;49.500;10.416;2024-01-11T08:16:50;11.10;;;5.75;;
81523;SDS011;70954;49.500;10.416;2024-01-11T08:19:15;12.05;;;5.85;;
81523;SDS011;70954;49.500;10.416;2024-01-11T08:21:41;10.63;;;6.22;;
81523;SDS011;70954;49.500;10.416;2024-01-11T08:24:07;14.40;;;6.88;;
81523;SDS011;70954;49.500;10.416;2024-01-11T08:26:33;12.48;;;6.63;;
81523;SDS011;70954;49.500;10.416;2024-01-11T08:28:59;13.20;;;6.80;;
81523;SDS011;70954;49.500;10.416;2024-01-11T08:31:24;15.05;;;6.82;;
81523;SDS011;70954;49.500;10.416;2024-01-11T08:33:50;20.13;;;6.88;;
81523;SDS011;70954;49.500;10.416;2024-01-11T08:36:15;11.80;;;6.28;;
81523;SDS011;70954;49.500;10.416;2024-01-11T08:38:41;14.98;;;7.05;;
81523;SDS011;70954;49.500;10.416;2024-01-11T08:41:06;16.75;;;7.15;;
81523;SDS011;70954;49.500;10.416;2024-01-11T08:43:32;14.82;;;7.13;;
81523;SDS011;70954;49.500;10.416;2024-01-11T08:45:58;19.92;;;8.93;;
81523;SDS011;70954;49.500;10.416;2024-01-11T08:48:24;13.10;;;7.88;;
81523;SDS011;70954;49.500;10.416;2024-01-11T08:50:49;14.18;;;6.93;;
81523;SDS011;70954;49.500;10.416;2024-01-11T08:53:15;15.20;;;8.35;;
81523;SDS011;70954;49.500;10.416;2024-01-11T08:55:40;16.23;;;8.10;;
81523;SDS011;70954;49.500;10.416;2024-01-11T08:58:06;19.45;;;9.38;;
81523;SDS011;70954;49.500;10.416;2024-01-11T09:00:31;14.98;;;7.38;;
81523;SDS011;70954;49.500;10.416;2024-01-11T09:02:57;19.63;;;9.25;;
81523;SDS011;70954;49.500;10.416;2024-01-11T09:05:22;19.08;;;9.48;;
81523;SDS011;70954;49.500;10.416;2024-01-11T09:07:48;20.15;;;9.05;;
81523;SDS011;70954;49.500;10.416;2024-01-11T09:10:13;23.27;;;10.18;;
81523;SDS011;70954;49.500;10.416;2024-01-11T09:12:39;22.30;;;10.05;;
81523;SDS011;70954;49.500;10.416;2024-01-11T09:15:04;13.98;;;7.18;;
81523;SDS011;70954;49.500;10.416;2024-01-11T09:17:30;13.68;;;7.07;;
81523;SDS011;70954;49.500;10.416;2024-01-11T09:19:56;13.30;;;6.97;;
81523;SDS011;70954;49.500;10.416;2024-01-11T09:22:21;16.40;;;8.52;;
81523;SDS011;70954;49.500;10.416;2024-01-11T09:24:47;14.50;;;7.82;;
81523;SDS011;70954;49.500;10.416;2024-01-11T09:27:12;14.30;;;7.03;;
81523;SDS011;70954;49.500;10.416;2024-01-11T09:29:44;13.88;;;7.65;;
81523;SDS011;70954;49.500;10.416;2024-01-11T09:32:10;14.25;;;7.40;;
81523;SDS011;70954;49.500;10.416;2024-01-11T09:34:37;13.95;;;7.05;;
81523;SDS011;70954;49.500;10.416;2024-01-11T09:37:02;12.45;;;7.82;;
81523;SDS011;70954;49.500;10.416;2024-01-11T09:39:28;15.57;;;7.28;;
81523;SDS011;70954;49.500;10.416;2024-01-11T09:42:11;17.25;;;7.80;;
81523;SDS011;70954;49.500;10.416;2024-01-11T09:44:37;15.10;;;7.70;;
81523;SDS011;70954;49.500;10.416;2024-01-11T09:47:03;12.60;;;6.90;;
81523;SDS011;70954;49.500;10.416;2024-01-11T09:49:30;18.52;;;9.27;;
81523;SDS011;70954;49.500;10.416;2024-01-11T09:51:58;16.00;;;7.70;;
81523;SDS011;70954;49.500;10.416;2024-01-11T09:54:25;16.05;;;8.02;;
81523;SDS011;70954;49.500;10.416;2024-01-11T09:56:51;12.15;;;6.93;;
81523;SDS011;70954;49.500;10.416;2024-01-11T09:59:20;16.48;;;8.10;;
81523;SDS011;70954;49.500;10.416;2024-01-11T10:01:46;15.98;;;7.07;;
81523;SDS011;70954;49.500;10.416;2024-01-11T10:04:12;12.13;;;6.95;;
81523;SDS011;70954;49.500;10.416;2024-01-11T10:06:40;13.50;;;7.10;;
81523;SDS011;70954;49.500;10.416;2024-01-11T10:09:06;14.45;;;7.10;;
81523;SDS011;70954;49.500;10.416;2024-01-11T10:11:32;13.02;;;7.65;;
81523;SDS011;70954;49.500;10.416;2024-01-11T10:13:57;14.40;;;8.00;;
81523;SDS011;70954;49.500;10.416;2024-01-11T10:16:23;15.27;;;8.13;;
81523;SDS011;70954;49.500;10.416;2024-01-11T10:18:48;15.25;;;7.38;;
81523;SDS011;70954;49.500;10.416;2024-01-11T10:21:14;14.98;;;8.18;;
81523;SDS011;70954;49.500;10.416;2024-01-11T10:23:39;17.08;;;7.63;;
81523;SDS011;70954;49.500;10.416;2024-01-11T10:26:05;15.00;;;7.75;;
81523;SDS011;70954;49.500;10.416;2024-01-11T10:28:30;12.60;;;6.80;;
81523;SDS011;70954;49.500;10.416;2024-01-11T10:30:56;13.82;;;7.05;;
81523;SDS011;70954;49.500;10.416;2024-01-11T10:33:22;14.55;;;7.18;;
81523;SDS011;70954;49.500;10.416;2024-01-11T10:35:48;13.93;;;7.13;;
81523;SDS011;70954;49.500;10.416;2024-01-11T10:38:14;12.77;;;7.25;;
81523;SDS011;70954;49.500;10.416;2024-01-11T10:40:41;13.75;;;7.60;;
81523;SDS011;70954;49.500;10.416;2024-01-11T10:43:08;13.88;;;7.25;;
81523;SDS011;70954;49.500;10.416;2024-01-11T10:45:35;14.60;;;7.80;;
81523;SDS011;70954;49.500;10.416;2024-01-11T10:48:01;12.60;;;6.95;;
81523;SDS011;70954;49.500;10.416;2024-01-11T10:50:29;14.18;;;6.80;;
81523;SDS011;70954;49.500;10.416;2024-01-11T10:55:27;12.93;;;6.15;;
81523;SDS011;70954;49.500;10.416;2024-01-11T10:57:53;12.35;;;7.28;;
81523;SDS011;70954;49.500;10.416;2024-01-11T11:00:20;12.88;;;6.45;;
81523;SDS011;70954;49.500;10.416;2024-01-11T11:02:46;14.18;;;7.68;;
81523;SDS011;70954;49.500;10.416;2024-01-11T11:05:12;11.68;;;6.63;;
81523;SDS011;70954;49.500;10.416;2024-01-11T11:07:39;12.45;;;6.25;;
81523;SDS011;70954;49.500;10.416;2024-01-11T11:10:05;9.57;;;5.55;;
81523;SDS011;70954;49.500;10.416;2024-01-11T11:12:33;11.10;;;6.15;;
81523;SDS011;70954;49.500;10.416;2024-01-11T11:15:01;12.00;;;6.53;;
81523;SDS011;70954;49.500;10.416;2024-01-11T11:17:27;12.80;;;6.50;;
81523;SDS011;70954;49.500;10.416;2024-01-11T11:19:53;12.05;;;6.65;;
81523;SDS011;70954;49.500;10.416;2024-01-11T11:22:19;14.00;;;6.90;;
81523;SDS011;70954;49.500;10.416;2024-01-11T11:24:44;10.77;;;5.80;;
81523;SDS011;70954;49.500;10.416;2024-01-11T11:27:13;11.02;;;6.00;;
81523;SDS011;70954;49.500;10.416;2024-01-11T11:29:38;11.52;;;5.93;;
81523;SDS011;70954;49.500;10.416;2024-01-11T11:32:04;9.57;;;4.60;;
81523;SDS011;70954;49.500;10.416;2024-01-11T11:34:39;9.88;;;5.28;;
81523;SDS011;70954;49.500;10.416;2024-01-11T11:37:08;13.20;;;6.03;;
81523;SDS011;70954;49.500;10.416;2024-01-11T11:39:34;8.98;;;5.07;;
81523;SDS011;70954;49.500;10.416;2024-01-11T11:42:00;10.05;;;5.65;;
81523;SDS011;70954;49.500;10.416;2024-01-11T11:44:25;11.10;;;5.95;;
81523;SDS011;70954;49.500;10.416;2024-01-11T11:46:51;11.23;;;5.75;;
81523;SDS011;70954;49.500;10.416;2024-01-11T11:49:16;10.55;;;5.47;;
81523;SDS011;70954;49.500;10.416;2024-01-11T11:51:42;7.80;;;4.43;;
81523;SDS011;70954;49.500;10.416;2024-01-11T11:54:08;10.13;;;5.22;;
81523;SDS011;70954;49.500;10.416;2024-01-11T11:56:34;11.80;;;6.15;;
81523;SDS011;70954;49.500;10.416;2024-01-11T11:59:00;11.18;;;5.70;;
81523;SDS011;70954;49.500;10.416;2024-01-11T12:01:27;10.73;;;5.72;;
81523;SDS011;70954;49.500;10.416;2024-01-11T12:03:53;11.68;;;6.30;;
81523;SDS011;70954;49.500;10.416;2024-01-11T12:06:19;10.80;;;5.07;;
81523;SDS011;70954;49.500;10.416;2024-01-11T12:08:46;10.60;;;5.30;;
81523;SDS011;70954;49.500;10.416;2024-01-11T12:11:13;11.57;;;5.65;;
81523;SDS011;70954;49.500;10.416;2024-01-11T12:13:39;10.25;;;5.00;;
81523;SDS011;70954;49.500;10.416;2024-01-11T12:16:05;10.73;;;4.93;;
81523;SDS011;70954;49.500;10.416;2024-01-11T12:18:31;8.23;;;4.43;;
81523;SDS011;70954;49.500;10.416;2024-01-11T12:20:56;9.30;;;4.82;;
81523;SDS011;70954;49.500;10.416;2024-01-11T12:23:22;9.60;;;5.00;;
81523;SDS011;70954;49.500;10.416;2024-01-11T12:25:47;9.82;;;4.93;;
81523;SDS011;70954;49.500;10.416;2024-01-11T12:28:13;7.57;;;4.47;;
81523;SDS011;70954;49.500;10.416;2024-01-11T12:30:39;8.35;;;4.60;;
81523;SDS011;70954;49.500;10.416;2024-01-11T12:33:04;8.43;;;4.50;;
81523;SDS011;70954;49.500;10.416;2024-01-11T12:35:30;7.82;;;4.28;;
81523;SDS011;70954;49.500;10.416;2024-01-11T12:38:00;8.57;;;4.70;;
81523;SDS011;70954;49.500;10.416;2024-01-11T12:40:31;8.35;;;5.05;;
81523;SDS011;70954;49.500;10.416;2024-01-11T12:43:01;8.15;;;4.70;;
81523;SDS011;70954;49.500;10.416;2024-01-11T12:45:26;8.77;;;5.07;;
81523;SDS011;70954;49.500;10.416;2024-01-11T12:47:52;7.93;;;4.80;;
81523;SDS011;70954;49.500;10.416;2024-01-11T12:50:17;9.50;;;5.03;;
81523;SDS011;70954;49.500;10.416;2024-01-11T12:52:43;7.20;;;3.83;;
81523;SDS011;70954;49.500;10.416;2024-01-11T12:55:17;10.45;;;5.10;;
81523;SDS011;70954;49.500;10.416;2024-01-11T12:57:44;10.05;;;4.72;;
81523;SDS011;70954;49.500;10.416;2024-01-11T13:00:10;7.13;;;4.40;;
81523;SDS011;70954;49.500;10.416;2024-01-11T13:02:36;9.05;;;4.40;;
81523;SDS011;70954;49.500;10.416;2024-01-11T13:05:03;6.05;;;3.92;;
81523;SDS011;70954;49.500;10.416;2024-01-11T13:07:30;9.95;;;5.47;;
81523;SDS011;70954;49.500;10.416;2024-01-11T13:09:55;8.88;;;5.18;;
81523;SDS011;70954;49.500;10.416;2024-01-11T13:12:21;8.70;;;4.57;;
81523;SDS011;70954;49.500;10.416;2024-01-11T13:14:46;8.45;;;4.55;;
81523;SDS011;70954;49.500;10.416;2024-01-11T13:17:11;9.07;;;5.05;;
81523;SDS011;70954;49.500;10.416;2024-01-11T13:19:37;8.43;;;4.63;;
81523;SDS011;70954;49.500;10.416;2024-01-11T13:22:02;8.13;;;4.32;;
81523;SDS011;70954;49.500;10.416;2024-01-11T13:24:28;10.88;;;5.45;;
81523;SDS011;70954;49.500;10.416;2024-01-11T13:26:53;11.13;;;5.20;;
81523;SDS011;70954;49.500;10.416;2024-01-11T13:29:19;8.15;;;4.75;;
81523;SDS011;70954;49.500;10.416;2024-01-11T13:31:44;8.60;;;4.50;;
81523;SDS011;70954;49.500;10.416;2024-01-11T13:34:09;8.13;;;4.45;;
81523;SDS011;70954;49.500;10.416;2024-01-11T13:36:35;8.10;;;4.70;;
81523;SDS011;70954;49.500;10.416;2024-01-11T13:39:00;8.70;;;4.28;;
81523;SDS011;70954;49.500;10.416;2024-01-11T13:41:26;8.20;;;4.35;;
81523;SDS011;70954;49.500;10.416;2024-01-11T13:43:51;8.15;;;4.63;;
81523;SDS011;70954;49.500;10.416;2024-01-11T13:46:17;7.85;;;4.53;;
81523;SDS011;70954;49.500;10.416;2024-01-11T13:48:42;8.18;;;4.57;;
81523;SDS011;70954;49.500;10.416;2024-01-11T13:51:07;6.85;;;3.85;;
81523;SDS011;70954;49.500;10.416;2024-01-11T13:53:33;9.27;;;4.47;;
81523;SDS011;70954;49.500;10.416;2024-01-11T13:55:58;6.93;;;4.50;;
81523;SDS011;70954;49.500;10.416;2024-01-11T13:58:24;6.65;;;4.10;;
81523;SDS011;70954;49.500;10.416;2024-01-11T14:00:49;7.55;;;4.50;;
81523;SDS011;70954;49.500;10.416;2024-01-11T14:03:15;7.40;;;4.53;;
81523;SDS011;70954;49.500;10.416;2024-01-11T14:05:41;8.80;;;5.05;;
81523;SDS011;70954;49.500;10.416;2024-01-11T14:08:06;7.05;;;4.20;;
81523;SDS011;70954;49.500;10.416;2024-01-11T14:10:31;9.52;;;5.00;;
81523;SDS011;70954;49.500;10.416;2024-01-11T14:12:58;7.80;;;4.28;;
81523;SDS011;70954;49.500;10.416;2024-01-11T14:15:24;10.68;;;5.57;;
81523;SDS011;70954;49.500;10.416;2024-01-11T14:17:50;8.90;;;4.97;;